Time;durP1;ratioP1;P1;durP2;ratioP2;P2;SDS_P1;SDS_P2;PMS_P1;PMS_P2;Temp;Humidity;BMP_temperature;BMP_pressure;BME280_temperature;BME280_humidity;BME280_pressure;Samples;Min_cycle;Max_cycle;Signal;HPM_P1;HPM_P2
2024/02/12 00:00:44;;;;;;;1.42;0.93;;;;;;;4.45;96.60;94356.78;2090645;28;20052;-55
2024/02/12 00:01:48;;;;;;;1.20;0.80;;;;;;;4.40;96.99;94344.13;2090620;28;20049;-57
2024/02/12 00:02:49;;;;;;;2.35;0.93;;;;;;;4.40;97.13;94356.16;2089960;28;20037;-56
2024/02/12 00:03:50;;;;;;;1.40;0.95;;;;;;;4.37;97.07;94357.16;2091064;28;20152;-56
2024/02/12 00:04:52;;;;;;;1.90;1.20;;;;;;;4.33;97.50;94353.06;2091179;28;20465;-56
2024/02/12 00:05:53;;;;;;;2.15;0.95;;;;;;;4.28;97.73;94352.47;2091047;28;20503;-55
2024/02/12 00:06:57;;;;;;;2.63;0.80;;;;;;;4.34;97.68;94356.47;2090976;28;20048;-56
2024/02/12 00:07:59;;;;;;;3.42;0.98;;;;;;;4.32;97.10;94353.97;2090838;28;20044;-56
2024/02/12 00:09:00;;;;;;;1.20;0.90;;;;;;;4.29;97.48;94355.88;2090288;28;20045;-56
2024/02/12 00:10:05;;;;;;;2.28;1.20;;;;;;;4.26;97.98;94351.72;2090828;28;20045;-56
2024/02/12 00:11:08;;;;;;;1.73;0.90;;;;;;;4.23;98.24;94348.47;2090622;28;20049;-56
2024/02/12 00:12:10;;;;;;;2.45;1.00;;;;;;;4.21;98.38;94356.22;2089843;28;20053;-56
2024/02/12 00:13:12;;;;;;;2.05;1.17;;;;;;;4.17;98.38;94357.28;2090441;28;20045;-56
2024/02/12 00:14:14;;;;;;;2.08;0.93;;;;;;;4.22;98.58;94341.66;2090541;28;20049;-55
2024/02/12 00:15:17;;;;;;;2.63;1.25;;;;;;;4.17;98.19;94353.00;2090554;28;20041;-57
2024/02/12 00:16:19;;;;;;;3.35;1.10;;;;;;;4.18;98.52;94351.25;2090461;28;20059;-56
2024/02/12 00:17:20;;;;;;;1.90;1.15;;;;;;;4.16;98.58;94358.19;2090533;28;20060;-55
2024/02/12 00:18:23;;;;;;;1.48;0.95;;;;;;;4.15;98.81;94357.38;2091031;28;20056;-55
2024/02/12 00:19:24;;;;;;;1.60;1.00;;;;;;;4.15;98.67;94359.09;2090453;28;20413;-55
2024/02/12 00:20:29;;;;;;;1.90;1.10;;;;;;;4.15;98.67;94354.78;2090898;28;20045;-56
2024/02/12 00:21:30;;;;;;;3.20;1.20;;;;;;;4.17;98.56;94357.28;2090457;28;20072;-56
2024/02/12 00:22:31;;;;;;;1.88;1.20;;;;;;;4.20;99.15;94360.53;2090361;28;20064;-55
2024/02/12 00:23:33;;;;;;;2.10;1.20;;;;;;;4.24;98.32;94362.97;2090729;28;20052;-56
2024/02/12 00:24:34;;;;;;;2.50;1.10;;;;;;;4.27;98.26;94357.66;2090599;28;20048;-55
2024/02/12 00:25:35;;;;;;;1.73;1.08;;;;;;;4.32;98.39;94350.56;2090485;28;20051;-55
2024/02/12 00:26:39;;;;;;;1.42;0.90;;;;;;;4.36;97.98;94364.94;2090467;28;20413;-56
2024/02/12 00:27:41;;;;;;;1.67;0.77;;;;;;;4.36;98.09;94360.63;2090472;28;20131;-56
2024/02/12 00:28:42;;;;;;;2.58;1.10;;;;;;;4.41;97.74;94362.97;2090418;28;20045;-55
2024/02/12 00:29:43;;;;;;;2.05;1.08;;;;;;;4.40;97.88;94361.31;2090406;28;20382;-56
2024/02/12 00:30:45;;;;;;;5.50;1.38;;;;;;;4.43;97.85;94368.88;2090411;28;20045;-56
2024/02/12 00:31:46;;;;;;;1.48;0.98;;;;;;;4.52;97.69;94367.59;2090319;28;20036;-55
2024/02/12 00:32:48;;;;;;;2.33;1.20;;;;;;;4.55;97.20;94363.13;2090385;28;20048;-56
2024/02/12 00:33:50;;;;;;;2.28;1.15;;;;;;;4.58;96.95;94362.97;2090360;28;20053;-56
2024/02/12 00:34:51;;;;;;;1.88;1.05;;;;;;;4.59;96.70;94356.91;2090310;28;20045;-56
2024/02/12 00:35:52;;;;;;;1.92;1.00;;;;;;;4.66;96.56;94369.47;2090372;28;20429;-55
2024/02/12 00:36:53;;;;;;;2.15;1.20;;;;;;;4.68;96.45;94365.06;2090135;28;20041;-55
2024/02/12 00:37:55;;;;;;;1.77;1.10;;;;;;;4.69;96.63;94372.72;2090352;28;20045;-55
2024/02/12 00:38:57;;;;;;;1.15;0.70;;;;;;;4.72;95.81;94357.13;2090541;28;20064;-55
2024/02/12 00:39:58;;;;;;;1.77;0.95;;;;;;;4.75;95.57;94361.28;2090406;28;20056;-55
2024/02/12 00:40:59;;;;;;;2.17;1.10;;;;;;;4.78;95.59;94356.81;2090626;28;20481;-55
2024/02/12 00:42:03;;;;;;;0.82;0.55;;;;;;;4.81;95.43;94360.97;2090480;28;20052;-55
2024/02/12 00:43:05;;;;;;;1.42;0.80;;;;;;;4.84;95.31;94365.97;2090379;28;20045;-57
2024/02/12 00:44:06;;;;;;;1.08;0.73;;;;;;;4.86;94.95;94369.28;2090320;28;20383;-56
2024/02/12 00:45:10;;;;;;;1.70;0.82;;;;;;;4.86;94.95;94367.56;2090733;28;20055;-55
2024/02/12 00:46:12;;;;;;;1.70;1.10;;;;;;;4.88;95.30;94366.66;2090287;28;20378;-55
2024/02/12 00:47:13;;;;;;;2.65;1.05;;;;;;;4.86;94.97;94366.72;2090333;28;20049;-56
2024/02/12 00:48:15;;;;;;;1.30;0.80;;;;;;;4.86;95.20;94374.44;2090474;28;20477;-55
2024/02/12 00:49:16;;;;;;;2.50;1.17;;;;;;;4.87;94.99;94365.81;2090148;28;20060;-56
2024/02/12 00:50:17;;;;;;;1.73;0.93;;;;;;;4.88;94.89;94371.78;2090340;28;20045;-55
2024/02/12 00:51:18;;;;;;;2.53;1.05;;;;;;;4.89;95.02;94365.72;2090002;28;20060;-56
2024/02/12 00:52:22;;;;;;;1.65;1.00;;;;;;;4.90;94.87;94368.25;2090284;28;20426;-56
2024/02/12 00:53:24;;;;;;;1.10;0.80;;;;;;;4.95;94.15;94366.25;2090271;28;20448;-55
2024/02/12 00:54:27;;;;;;;1.38;0.85;;;;;;;4.96;94.42;94374.81;2090288;28;20044;-56
2024/02/12 00:55:28;;;;;;;1.95;1.10;;;;;;;4.95;94.48;94373.16;2090242;28;20060;-55
2024/02/12 00:56:29;;;;;;;2.92;1.27;;;;;;;4.95;94.58;94376.56;2090248;28;20041;-55
2024/02/12 00:57:30;;;;;;;1.65;1.00;;;;;;;4.95;94.68;94373.97;2090431;28;20389;-56
2024/02/12 00:58:33;;;;;;;1.55;0.60;;;;;;;4.98;94.27;94367.84;2089096;28;20057;-56
2024/02/12 00:59:39;;;;;;;1.63;0.50;;;;;;;5.00;93.99;94368.59;2089366;28;20059;-53
2024/02/12 01:00:40;;;;;;;2.88;1.00;;;;;;;5.02;94.17;94371.91;2090432;28;20056;-55
2024/02/12 01:01:41;;;;;;;3.10;1.00;;;;;;;5.00;94.16;94366.88;2090283;28;20060;-56
2024/02/12 01:02:42;;;;;;;1.38;0.90;;;;;;;5.01;93.90;94372.84;2089970;28;20056;-56
2024/02/12 01:03:44;;;;;;;1.50;0.88;;;;;;;5.01;94.25;94367.69;2090324;28;20053;-57
2024/02/12 01:04:46;;;;;;;1.02;0.82;;;;;;;4.99;94.33;94356.63;2090081;28;20045;-56
2024/02/12 01:05:48;;;;;;;6.00;1.38;;;;;;;5.01;93.97;94362.53;2090249;28;20052;-56
2024/02/12 01:06:49;;;;;;;2.25;0.80;;;;;;;5.01;94.21;94368.50;2090119;28;20045;-55
2024/02/12 01:07:50;;;;;;;1.52;0.85;;;;;;;5.01;94.21;94375.41;2090347;28;20381;-55
2024/02/12 01:08:52;;;;;;;2.50;1.08;;;;;;;5.00;93.92;94373.75;2090161;28;20029;-56
2024/02/12 01:09:54;;;;;;;2.13;0.90;;;;;;;4.99;94.23;94367.75;2090096;28;20048;-55
2024/02/12 01:10:55;;;;;;;0.50;0.43;;;;;;;4.99;94.06;94370.31;2090315;28;20468;-56
2024/02/12 01:11:57;;;;;;;1.80;1.00;;;;;;;4.99;94.47;94370.31;2090512;28;20044;-55
2024/02/12 01:12:58;;;;;;;1.38;0.68;;;;;;;5.02;93.65;94370.16;2089274;28;20052;-55
2024/02/12 01:14:00;;;;;;;2.50;0.85;;;;;;;5.01;93.93;94365.94;2090064;28;20033;-56
2024/02/12 01:15:01;;;;;;;1.48;0.95;;;;;;;5.02;94.37;94372.75;2090017;28;20032;-57
2024/02/12 01:16:03;;;;;;;1.40;0.80;;;;;;;4.99;93.99;94369.50;2089822;28;20492;-57
2024/02/12 01:17:04;;;;;;;1.58;0.95;;;;;;;5.00;94.24;94366.03;2089627;28;20036;-56
2024/02/12 01:18:07;;;;;;;1.35;0.60;;;;;;;5.00;94.21;94364.28;2089824;28;20049;-57
2024/02/12 01:19:08;;;;;;;1.77;0.90;;;;;;;5.01;94.02;94368.50;2089785;28;20052;-57
2024/02/12 01:20:11;;;;;;;0.80;0.60;;;;;;;5.04;93.38;94360.63;2089794;28;20037;-56
2024/02/12 01:21:12;;;;;;;1.45;0.50;;;;;;;5.07;93.40;94360.47;2089801;28;20055;-57
2024/02/12 01:22:15;;;;;;;0.60;0.40;;;;;;;5.09;92.62;94358.66;2089588;28;20055;-56
2024/02/12 01:23:16;;;;;;;1.55;0.88;;;;;;;5.09;93.19;94360.41;2090032;28;20044;-55
2024/02/12 01:24:17;;;;;;;1.65;0.60;;;;;;;5.10;92.84;94356.91;2090222;28;20477;-55
2024/02/12 01:25:19;;;;;;;2.22;0.85;;;;;;;5.10;92.92;94362.06;2090177;28;20033;-55
2024/02/12 01:26:20;;;;;;;1.27;0.55;;;;;;;5.11;93.19;94362.91;2090017;28;20053;-56
2024/02/12 01:27:23;;;;;;;1.75;0.70;;;;;;;5.12;93.06;94370.53;2090003;28;20056;-56
2024/02/12 01:28:25;;;;;;;3.25;0.50;;;;;;;5.12;93.11;94362.00;2089414;28;20500;-56
2024/02/12 01:29:27;;;;;;;0.63;0.47;;;;;;;5.15;92.43;94361.81;2090035;28;20052;-55
2024/02/12 01:30:28;;;;;;;3.05;0.60;;;;;;;5.17;91.98;94365.97;2090110;28;20049;-55
2024/02/12 01:31:30;;;;;;;2.00;0.70;;;;;;;5.16;92.51;94363.47;2090592;28;20044;-55
2024/02/12 01:32:31;;;;;;;1.17;0.60;;;;;;;5.16;92.44;94363.47;2090435;28;20049;-56
2024/02/12 01:33:33;;;;;;;1.05;0.40;;;;;;;5.17;92.18;94365.16;2090138;28;20502;-55
2024/02/12 01:34:34;;;;;;;1.38;0.68;;;;;;;5.17;91.85;94367.72;2090050;28;20049;-56
2024/02/12 01:35:37;;;;;;;0.65;0.50;;;;;;;5.18;91.80;94361.66;2090119;28;20044;-56
2024/02/12 01:36:38;;;;;;;1.88;0.73;;;;;;;5.19;92.15;94371.06;2090001;28;20041;-56
2024/02/12 01:37:41;;;;;;;1.38;0.70;;;;;;;5.16;92.20;94360.91;2090205;28;20029;-56
2024/02/12 01:38:42;;;;;;;1.77;0.73;;;;;;;5.16;92.21;94360.91;2090029;28;20045;-56
2024/02/12 01:39:43;;;;;;;3.22;1.23;;;;;;;5.13;92.24;94355.91;2090086;28;20033;-55
2024/02/12 01:40:44;;;;;;;1.45;0.82;;;;;;;5.10;92.32;94356.91;2089194;28;20052;-56
2024/02/12 01:41:45;;;;;;;1.02;0.52;;;;;;;5.07;92.38;94363.03;2089533;28;20060;-56
2024/02/12 01:42:50;;;;;;;1.40;0.70;;;;;;;5.05;92.33;94364.03;2089703;28;20053;-56
2024/02/12 01:43:51;;;;;;;0.93;0.60;;;;;;;5.03;92.44;94361.56;2089933;28;20060;-55
2024/02/12 01:45:11;;;;;;;1.10;0.60;;;;;;;5.00;92.61;94366.88;2089472;28;20060;-56
2024/02/12 01:46:13;;;;;;;1.30;0.77;;;;;;;4.93;93.51;94365.50;2090114;28;20051;-55
2024/02/12 01:47:15;;;;;;;1.45;0.73;;;;;;;4.90;93.10;94365.66;2089957;28;20056;-55
2024/02/12 01:48:18;;;;;;;1.98;0.98;;;;;;;4.88;93.13;94372.63;2090022;28;20086;-56
2024/02/12 01:49:19;;;;;;;2.25;0.80;;;;;;;4.85;93.44;94368.47;2089261;28;20052;-56
2024/02/12 01:50:20;;;;;;;1.33;0.77;;;;;;;4.83;93.63;94374.59;2088754;28;20055;-56
2024/02/12 01:51:22;;;;;;;1.20;0.60;;;;;;;4.78;93.95;94364.53;2090475;28;20159;-57
2024/02/12 01:52:23;;;;;;;2.15;0.85;;;;;;;4.82;94.10;94370.38;2089567;28;20056;-56
2024/02/12 01:53:24;;;;;;;1.38;0.50;;;;;;;4.82;94.03;94372.94;2081268;28;20045;-56
2024/02/12 01:54:25;;;;;;;1.05;0.57;;;;;;;4.83;93.91;94366.88;2081537;28;20060;-54
2024/02/12 01:55:29;;;;;;;3.33;1.08;;;;;;;4.85;93.88;94368.47;2089386;28;20408;-55
2024/02/12 01:56:31;;;;;;;0.75;0.50;;;;;;;4.89;93.49;94363.97;2089303;28;20064;-57
2024/02/12 01:57:33;;;;;;;1.80;0.75;;;;;;;4.94;93.36;94372.28;2081610;28;20057;-53
2024/02/12 01:58:38;;;;;;;1.23;0.70;;;;;;;4.94;93.46;94367.16;2089170;28;20049;-57
2024/02/12 01:59:40;;;;;;;1.88;1.08;;;;;;;4.98;92.89;94371.25;2089382;28;20045;-54
2024/02/12 02:00:44;;;;;;;2.03;0.90;;;;;;;4.99;93.33;94375.47;2089497;28;20037;-53
2024/02/12 02:01:47;;;;;;;2.38;0.75;;;;;;;4.97;93.25;94372.16;2088944;28;20049;-53
2024/02/12 02:02:49;;;;;;;1.30;0.70;;;;;;;4.98;92.87;94381.53;2089042;28;20049;-54
2024/02/12 02:03:50;;;;;;;1.05;0.60;;;;;;;5.01;93.00;94367.69;2089232;28;20091;-53
2024/02/12 02:04:53;;;;;;;2.03;0.60;;;;;;;5.02;92.89;94367.59;2081402;28;20057;-54
2024/02/12 02:05:55;;;;;;;1.45;0.73;;;;;;;5.02;92.93;94372.75;2089257;28;20385;-54
2024/02/12 02:06:57;;;;;;;1.52;0.80;;;;;;;5.04;92.63;94367.53;2089930;28;20056;-53
2024/02/12 02:08:00;;;;;;;1.15;0.60;;;;;;;5.03;92.71;94371.84;2089911;28;20041;-55
2024/02/12 02:09:01;;;;;;;1.40;0.73;;;;;;;5.05;92.53;94369.19;2089882;28;20049;-54
2024/02/12 02:10:04;;;;;;;1.10;0.60;;;;;;;5.07;92.28;94369.94;2090093;28;20048;-54
2024/02/12 02:11:12;;;;;;;1.10;1.00;;;;;;;5.07;92.23;94368.19;2089867;28;20440;-53
2024/02/12 02:12:14;;;;;;;1.02;0.60;;;;;;;5.10;92.05;94367.19;2089933;28;20032;-54
2024/02/12 02:13:16;;;;;;;2.33;0.70;;;;;;;5.11;92.52;94370.63;2089780;28;20053;-54
2024/02/12 02:14:17;;;;;;;1.40;0.50;;;;;;;5.09;92.53;94368.13;2089284;28;20033;-55
2024/02/12 02:15:19;;;;;;;2.28;0.63;;;;;;;5.08;92.20;94369.88;2089107;28;20091;-54
2024/02/12 02:16:20;;;;;;;0.93;0.60;;;;;;;5.09;92.09;94368.94;2089996;28;20060;-53
2024/02/12 02:17:22;;;;;;;0.85;0.50;;;;;;;5.11;91.85;94365.47;2089887;28;20053;-53
2024/02/12 02:18:23;;;;;;;1.30;0.60;;;;;;;5.10;92.11;94362.06;2090011;28;20057;-54
2024/02/12 02:19:26;;;;;;;1.10;0.63;;;;;;;5.12;91.39;94367.13;2089899;28;20053;-53
2024/02/12 02:20:27;;;;;;;1.95;0.70;;;;;;;5.11;91.59;94357.75;2089956;28;20048;-53
2024/02/12 02:21:28;;;;;;;0.57;0.50;;;;;;;5.11;91.21;94357.75;2089738;28;20115;-53
2024/02/12 02:22:29;;;;;;;0.90;0.52;;;;;;;5.14;90.96;94365.31;2089668;28;20048;-53
2024/02/12 02:23:31;;;;;;;1.30;0.60;;;;;;;5.11;91.13;94366.31;2089832;28;20057;-54
2024/02/12 02:24:32;;;;;;;2.63;1.08;;;;;;;5.06;91.56;94370.84;2089933;28;20045;-53
2024/02/12 02:25:33;;;;;;;1.55;0.70;;;;;;;5.01;91.95;94368.50;2089874;28;20048;-56
2024/02/12 02:26:34;;;;;;;1.67;0.68;;;;;;;4.96;92.04;94365.34;2089822;28;20400;-53
2024/02/12 02:27:35;;;;;;;0.65;0.30;;;;;;;4.96;92.15;94351.66;2089895;28;20060;-54
2024/02/12 02:28:36;;;;;;;2.20;0.70;;;;;;;4.99;91.94;94370.31;2089956;28;20056;-53
2024/02/12 02:29:37;;;;;;;1.52;0.60;;;;;;;4.91;92.34;94367.31;2089361;28;20489;-53
2024/02/12 02:30:39;;;;;;;0.90;0.50;;;;;;;4.84;92.44;94365.97;2090196;28;20057;-53
2024/02/12 02:31:40;;;;;;;0.95;0.60;;;;;;;4.77;93.08;94362.88;2089826;28;20053;-54
2024/02/12 02:32:42;;;;;;;1.02;0.50;;;;;;;4.75;93.21;94363.84;2089553;28;20065;-53
2024/02/12 02:33:43;;;;;;;1.60;0.70;;;;;;;4.72;93.25;94361.44;2089879;28;20061;-54
2024/02/12 02:34:44;;;;;;;1.13;0.60;;;;;;;4.70;93.63;94364.09;2089797;28;20052;-55
2024/02/12 02:35:45;;;;;;;1.33;0.75;;;;;;;4.68;93.96;94373.63;2089842;28;20045;-53
2024/02/12 02:36:46;;;;;;;2.10;0.85;;;;;;;4.63;94.22;94367.88;2089052;28;20480;-53
2024/02/12 02:37:48;;;;;;;1.45;0.47;;;;;;;4.59;94.31;94367.19;2089194;28;20060;-55
2024/02/12 02:38:49;;;;;;;2.05;0.77;;;;;;;4.62;94.37;94361.94;2089831;28;20059;-56
2024/02/12 02:39:50;;;;;;;2.40;0.73;;;;;;;4.69;94.05;94372.72;2089550;28;20400;-56
2024/02/12 02:40:51;;;;;;;1.23;0.60;;;;;;;4.69;94.31;94369.31;2090985;28;20052;-56
2024/02/12 02:41:53;;;;;;;0.65;0.40;;;;;;;4.67;94.28;94373.69;2091007;28;20063;-56
2024/02/12 02:42:54;;;;;;;2.28;0.70;;;;;;;4.69;94.15;94367.56;2091303;28;20048;-56
2024/02/12 02:43:55;;;;;;;2.55;1.00;;;;;;;4.72;94.16;94372.56;2091284;28;20037;-56
2024/02/12 02:44:56;;;;;;;1.20;0.70;;;;;;;4.71;93.96;94376.06;2091266;28;20043;-56
2024/02/12 02:45:59;;;;;;;1.45;0.70;;;;;;;4.72;94.24;94377.69;2091572;28;20476;-55
2024/02/12 02:47:00;;;;;;;0.52;0.40;;;;;;;4.71;94.08;94372.66;2091294;28;20037;-55
2024/02/12 02:48:02;;;;;;;1.35;0.65;;;;;;;4.72;94.13;94369.16;2091297;28;20182;-55
2024/02/12 02:49:03;;;;;;;0.93;0.65;;;;;;;4.74;94.45;94375.91;2091416;28;20098;-56
2024/02/12 02:50:05;;;;;;;1.25;0.50;;;;;;;4.76;94.13;94375.81;2091209;28;20044;-56
2024/02/12 02:51:06;;;;;;;1.70;0.77;;;;;;;4.79;93.90;94381.63;2091622;28;20041;-56
2024/02/12 02:52:07;;;;;;;2.88;0.75;;;;;;;4.80;94.22;94385.88;2091481;28;20048;-55
2024/02/12 02:53:08;;;;;;;1.88;0.70;;;;;;;4.81;94.28;94381.53;2091243;28;20473;-55
2024/02/12 02:54:12;;;;;;;1.33;0.70;;;;;;;4.79;94.52;94375.66;2091172;28;20036;-56
2024/02/12 02:55:15;;;;;;;0.98;0.45;;;;;;;4.78;94.02;94374.81;2090641;28;20045;-55
2024/02/12 02:56:16;;;;;;;1.42;0.70;;;;;;;4.81;94.41;94378.97;2090585;28;20048;-55
2024/02/12 02:57:18;;;;;;;1.33;0.60;;;;;;;4.82;94.44;94378.91;2091288;28;20052;-56
2024/02/12 02:58:20;;;;;;;1.35;0.60;;;;;;;4.83;94.29;94378.00;2091227;28;20052;-53
2024/02/12 02:59:21;;;;;;;1.83;0.80;;;;;;;4.86;94.07;94382.16;2091255;28;20064;-53
2024/02/12 03:00:25;;;;;;;1.02;0.70;;;;;;;4.86;94.26;94388.16;2091134;28;20045;-53
2024/02/12 03:01:28;;;;;;;1.20;0.80;;;;;;;4.88;94.04;94377.75;2091114;28;20037;-54
2024/02/12 03:02:30;;;;;;;1.58;0.70;;;;;;;4.88;94.05;94384.66;2090887;28;20052;-53
2024/02/12 03:03:31;;;;;;;0.98;0.70;;;;;;;4.93;93.61;94387.81;2091079;28;20053;-55
2024/02/12 03:04:34;;;;;;;0.68;0.52;;;;;;;4.94;93.79;94389.47;2091025;28;20056;-54
2024/02/12 03:05:35;;;;;;;2.35;0.60;;;;;;;4.98;93.95;94381.53;2091070;28;20048;-55
2024/02/12 03:06:37;;;;;;;2.28;0.50;;;;;;;5.00;93.84;94391.75;2091076;28;20053;-53
2024/02/12 03:07:43;;;;;;;2.08;0.90;;;;;;;5.02;93.22;94384.78;2091095;28;20049;-53
2024/02/12 03:08:44;;;;;;;3.03;0.60;;;;;;;5.04;93.22;94393.25;2091062;28;20055;-53
2024/02/12 03:09:46;;;;;;;1.25;0.55;;;;;;;5.04;92.79;94383.78;2091029;28;20041;-53
2024/02/12 03:10:48;;;;;;;1.33;0.70;;;;;;;5.04;93.45;94382.97;2091100;28;20048;-54
2024/02/12 03:11:51;;;;;;;1.63;0.70;;;;;;;5.03;93.10;94381.31;2090979;28;20404;-54
2024/02/12 03:12:52;;;;;;;1.20;0.55;;;;;;;5.02;93.39;94402.78;2090387;28;20045;-54
2024/02/12 03:13:55;;;;;;;1.08;0.60;;;;;;;5.03;93.38;94395.00;2091068;28;20036;-53
2024/02/12 03:14:57;;;;;;;1.10;0.47;;;;;;;5.03;93.70;94391.59;2090047;28;20045;-55
2024/02/12 03:15:58;;;;;;;1.55;0.60;;;;;;;5.01;93.45;94394.25;2090380;28;20049;-54
2024/02/12 03:16:59;;;;;;;4.07;0.80;;;;;;;5.01;94.24;94401.13;2091084;28;20037;-56
2024/02/12 03:18:00;;;;;;;1.27;0.57;;;;;;;5.00;93.61;94395.16;2091197;28;20033;-56
2024/02/12 03:19:01;;;;;;;1.80;0.70;;;;;;;5.00;93.75;94390.00;2091002;28;20436;-55
2024/02/12 03:20:03;;;;;;;1.45;0.77;;;;;;;5.00;93.86;94392.59;2091173;28;20555;-55
2024/02/12 03:21:04;;;;;;;1.10;0.60;;;;;;;5.00;93.64;94397.72;2091028;28;20049;-56
2024/02/12 03:22:06;;;;;;;2.13;0.63;;;;;;;4.99;94.00;94397.78;2091093;28;20045;-56
2024/02/12 03:23:09;;;;;;;1.20;0.60;;;;;;;4.99;94.00;94397.78;2091169;28;20056;-53
2024/02/12 03:24:13;;;;;;;0.75;0.40;;;;;;;4.98;93.63;94399.53;2090975;28;20045;-56
2024/02/12 03:25:15;;;;;;;1.80;0.80;;;;;;;4.96;94.24;94401.34;2090820;28;20481;-56
2024/02/12 03:26:16;;;;;;;2.42;0.70;;;;;;;4.93;94.15;94396.38;2090924;28;20059;-56
2024/02/12 03:27:19;;;;;;;2.70;0.80;;;;;;;4.93;94.43;94393.81;2091163;28;20055;-56
2024/02/12 03:28:22;;;;;;;0.20;0.20;;;;;;;4.92;94.15;94388.72;2091005;28;20048;-57
2024/02/12 03:29:23;;;;;;;2.13;0.50;;;;;;;4.91;94.33;94400.75;2090877;28;20420;-55
2024/02/12 03:30:24;;;;;;;2.28;0.70;;;;;;;4.90;94.86;94396.53;2090966;28;20481;-55
2024/02/12 03:31:25;;;;;;;0.80;0.50;;;;;;;4.92;94.87;94402.44;2090895;28;20033;-56
2024/02/12 03:32:26;;;;;;;0.93;0.43;;;;;;;4.89;94.43;94400.00;2090903;28;20097;-55
2024/02/12 03:33:27;;;;;;;1.50;0.70;;;;;;;4.90;94.96;94400.84;2090961;28;20057;-56
2024/02/12 03:34:31;;;;;;;0.68;0.50;;;;;;;4.89;94.70;94394.84;2091087;28;20047;-56
2024/02/12 03:35:32;;;;;;;0.60;0.38;;;;;;;4.91;94.89;94398.19;2090947;28;20480;-55
2024/02/12 03:36:33;;;;;;;0.90;0.60;;;;;;;4.92;94.85;94407.59;2091332;28;20045;-56
2024/02/12 03:37:34;;;;;;;1.38;0.70;;;;;;;4.93;94.82;94400.69;2091045;28;20045;-56
2024/02/12 03:38:37;;;;;;;1.30;0.60;;;;;;;4.90;94.92;94406.81;2090878;28;20049;-56
2024/02/12 03:39:38;;;;;;;1.70;0.85;;;;;;;4.88;95.60;94405.22;2090708;28;20048;-55
2024/02/12 03:40:40;;;;;;;1.08;0.43;;;;;;;4.87;95.44;94409.56;2090926;28;20051;-55
2024/02/12 03:41:41;;;;;;;1.52;0.82;;;;;;;4.89;95.38;94400.00;2090815;28;20041;-55
2024/02/12 03:42:42;;;;;;;0.73;0.52;;;;;;;4.89;95.37;94410.28;2090867;28;20112;-56
2024/02/12 03:43:44;;;;;;;1.55;0.77;;;;;;;4.89;95.26;94412.03;2091353;28;20060;-57
2024/02/12 03:44:45;;;;;;;0.40;0.40;;;;;;;4.90;94.68;94403.41;2090439;28;20060;-55
2024/02/12 03:45:46;;;;;;;0.70;0.40;;;;;;;4.93;94.75;94404.09;2090961;28;20044;-56
2024/02/12 03:46:47;;;;;;;1.80;0.75;;;;;;;4.95;94.91;94401.44;2091116;28;20469;-56
2024/02/12 03:47:49;;;;;;;1.05;0.52;;;;;;;4.94;94.73;94410.06;2090814;28;20045;-56
2024/02/12 03:59:53;;;;;;;1.10;0.68;;;;;;;4.43;97.87;94418.53;2090844;28;20382;-55
2024/02/12 04:00:54;;;;;;;1.80;0.68;;;;;;;4.40;98.26;94433.28;2090814;28;20037;-55
2024/02/12 04:01:56;;;;;;;0.70;0.45;;;;;;;4.37;98.74;94423.97;2090691;28;20044;-55
2024/02/12 04:02:58;;;;;;;3.47;0.80;;;;;;;4.37;98.28;94425.72;2090678;28;20487;-55
2024/02/12 04:03:59;;;;;;;0.85;0.50;;;;;;;4.39;98.50;94431.63;2090718;28;20055;-55
2024/02/12 04:05:02;;;;;;;0.88;0.50;;;;;;;4.38;98.24;94417.09;2090303;28;20053;-53
2024/02/12 04:06:06;;;;;;;0.98;0.60;;;;;;;4.36;98.24;94427.47;2090618;28;20040;-54
2024/02/12 04:07:07;;;;;;;1.17;0.50;;;;;;;4.34;98.56;94428.44;2090561;28;20400;-54
2024/02/12 04:08:09;;;;;;;0.65;0.50;;;;;;;4.28;98.57;94429.56;2090636;28;20055;-53
2024/02/12 04:09:10;;;;;;;0.82;0.60;;;;;;;4.27;98.92;94432.19;2090551;28;20044;-53
2024/02/12 04:10:11;;;;;;;1.23;0.60;;;;;;;4.24;99.21;94433.16;2090531;28;20063;-53
2024/02/12 04:11:13;;;;;;;0.85;0.50;;;;;;;4.22;98.90;94431.56;2090659;28;20036;-56
2024/02/12 04:12:14;;;;;;;1.67;1.00;;;;;;;4.22;99.34;94434.97;2090344;28;20079;-55
2024/02/12 04:13:15;;;;;;;2.13;1.30;;;;;;;4.18;99.46;94434.28;2089904;28;20056;-53
2024/02/12 04:14:17;;;;;;;0.68;0.55;;;;;;;4.23;99.78;94438.41;2090534;28;20037;-54
2024/02/12 04:15:19;;;;;;;1.95;0.60;;;;;;;4.24;99.16;94432.34;2090595;28;20370;-53
2024/02/12 04:16:22;;;;;;;0.82;0.50;;;;;;;4.24;99.34;94433.16;2090576;28;20056;-54
2024/02/12 04:17:25;;;;;;;1.50;0.63;;;;;;;4.22;99.13;94442.69;2090672;28;20479;-53
2024/02/12 04:18:26;;;;;;;0.75;0.60;;;;;;;4.17;99.27;94445.50;2090524;28;20047;-56
2024/02/12 04:19:27;;;;;;;1.15;0.50;;;;;;;4.13;99.50;94441.38;2090950;28;20044;-57
2024/02/12 04:20:28;;;;;;;1.02;0.70;;;;;;;4.15;99.83;94442.16;2090569;28;20068;-54
2024/02/12 04:21:32;;;;;;;0.68;0.47;;;;;;;4.15;99.80;94442.16;2090501;28;20404;-53
2024/02/12 04:22:33;;;;;;;0.88;0.60;;;;;;;4.18;99.83;94446.31;2090614;28;20047;-53
2024/02/12 04:23:37;;;;;;;1.45;0.68;;;;;;;4.17;99.70;94434.34;2091019;28;20045;-53
2024/02/12 04:24:41;;;;;;;1.10;0.60;;;;;;;4.19;99.90;94446.22;2090970;28;20052;-55
2024/02/12 04:25:42;;;;;;;3.33;0.82;;;;;;;4.17;99.58;94436.91;2090659;28;20047;-55
2024/02/12 04:26:44;;;;;;;2.00;0.70;;;;;;;4.20;99.71;94442.78;2090007;28;20045;-56
2024/02/12 04:27:45;;;;;;;2.25;0.60;;;;;;;4.19;99.58;94435.13;2090097;28;20477;-53
2024/02/12 04:28:48;;;;;;;0.98;0.65;;;;;;;4.19;99.63;94445.41;2090659;28;20049;-52
2024/02/12 04:29:51;;;;;;;1.15;0.60;;;;;;;4.24;99.69;94442.63;2090390;28;20048;-53
2024/02/12 04:30:52;;;;;;;1.77;0.57;;;;;;;4.25;99.35;94434.00;2089511;28;20048;-53
2024/02/12 04:31:53;;;;;;;2.15;0.70;;;;;;;4.25;99.34;94444.28;2089563;28;20470;-54
2024/02/12 04:32:55;;;;;;;1.50;0.60;;;;;;;4.25;99.59;94442.56;2090402;28;20048;-55
2024/02/12 04:33:56;;;;;;;1.08;0.60;;;;;;;4.27;99.41;94447.59;2090435;28;20569;-54
2024/02/12 04:34:58;;;;;;;0.77;0.50;;;;;;;4.30;99.36;94439.75;2090931;28;20041;-54
2024/02/12 04:36:01;;;;;;;1.77;0.60;;;;;;;4.33;98.84;94447.31;2090078;28;20049;-53
2024/02/12 04:37:02;;;;;;;1.33;0.63;;;;;;;4.35;98.74;94450.66;2090489;28;20041;-53
2024/02/12 04:38:03;;;;;;;1.55;0.57;;;;;;;4.35;98.90;94446.34;2089735;28;20513;-54
2024/02/12 04:39:04;;;;;;;0.80;0.60;;;;;;;4.37;99.00;94448.84;2090193;28;20037;-54
2024/02/12 04:40:07;;;;;;;0.90;0.60;;;;;;;4.33;99.11;94439.59;2090695;28;20045;-54
2024/02/12 04:41:09;;;;;;;1.38;0.65;;;;;;;4.36;98.84;94448.03;2090483;28;20056;-59
2024/02/12 04:42:10;;;;;;;1.45;0.73;;;;;;;4.36;98.73;94442.88;2090061;28;20508;-54
2024/02/12 04:43:11;;;;;;;1.13;0.60;;;;;;;4.38;98.72;94448.78;2081407;28;20048;-53
2024/02/12 04:44:13;;;;;;;0.90;0.63;;;;;;;4.40;98.83;94448.69;2081770;28;20034;-53
2024/02/12 04:45:14;;;;;;;1.30;0.70;;;;;;;4.41;98.75;94450.34;2090234;28;20401;-53
2024/02/12 04:46:15;;;;;;;0.85;0.70;;;;;;;4.45;98.67;94451.88;2090308;28;20469;-54
2024/02/12 04:47:16;;;;;;;1.70;0.80;;;;;;;4.45;98.55;94454.44;2090405;28;20392;-53
2024/02/12 04:48:17;;;;;;;2.92;0.70;;;;;;;4.45;98.36;94445.91;2090005;28;20048;-53
2024/02/12 04:49:21;;;;;;;2.00;0.70;;;;;;;4.46;98.32;94453.53;2090036;28;20045;-53
2024/02/12 04:50:23;;;;;;;1.35;0.80;;;;;;;4.46;97.89;94445.00;2090355;28;20053;-54
2024/02/12 04:51:24;;;;;;;1.27;0.77;;;;;;;4.49;98.17;94458.56;2089970;28;20049;-54
2024/02/12 04:52:25;;;;;;;0.52;0.40;;;;;;;4.50;98.21;94447.34;2090290;28;20045;-54
2024/02/12 04:53:26;;;;;;;1.38;0.70;;;;;;;4.51;98.07;94456.72;2090088;28;20060;-53
2024/02/12 04:54:28;;;;;;;0.60;0.40;;;;;;;4.52;98.07;94452.44;2090715;28;20499;-53
2024/02/12 04:55:29;;;;;;;0.90;0.63;;;;;;;4.50;97.85;94444.78;2090222;28;20056;-54
2024/02/12 04:56:31;;;;;;;0.60;0.50;;;;;;;4.52;97.89;94455.84;2090707;28;20052;-53
2024/02/12 04:57:32;;;;;;;1.77;0.80;;;;;;;4.55;97.75;94457.41;2089754;28;20048;-54
2024/02/12 04:58:35;;;;;;;1.02;0.60;;;;;;;4.56;97.97;94461.66;2089891;28;20051;-54
2024/02/12 04:59:37;;;;;;;1.13;0.82;;;;;;;4.54;98.28;94459.13;2090205;28;20075;-54
2024/02/12 05:00:38;;;;;;;1.80;0.93;;;;;;;4.57;98.03;94465.88;2089980;28;20048;-54
2024/02/12 05:01:39;;;;;;;1.88;0.65;;;;;;;4.55;98.07;94457.41;2090430;28;20045;-54
2024/02/12 05:02:40;;;;;;;1.30;0.57;;;;;;;4.54;97.91;94455.75;2089521;28;20060;-54
2024/02/12 05:03:41;;;;;;;2.20;0.65;;;;;;;4.54;97.81;94456.56;2090167;28;20408;-53
2024/02/12 05:04:42;;;;;;;1.42;0.70;;;;;;;4.53;97.93;94454.09;2089993;28;20048;-54
2024/02/12 05:05:43;;;;;;;0.98;0.60;;;;;;;4.49;98.02;94461.13;2090753;28;20087;-54